sensor_id;sensor_type;location;lat;lon;timestamp;temperature;humidity
18577;DHT22;9418;52.694;13.294;2023-05-20T00:00:26;9.50;99.90
18577;DHT22;9418;52.694;13.294;2023-05-20T00:02:53;9.40;99.90
18577;DHT22;9418;52.694;13.294;2023-05-20T00:05:19;9.40;99.90
18577;DHT22;9418;52.694;13.294;2023-05-20T00:07:46;9.40;99.90
18577;DHT22;9418;52.694;13.294;2023-05-20T00:10:13;9.40;99.90
18577;DHT22;9418;52.694;13.294;2023-05-20T00:12:41;9.40;99.90
18577;DHT22;9418;52.694;13.294;2023-05-20T00:15:08;9.30;99.90
18577;DHT22;9418;52.694;13.294;2023-05-20T00:17:36;9.30;99.90
18577;DHT22;9418;52.694;13.294;2023-05-20T00:20:03;9.30;99.90
18577;DHT22;9418;52.694;13.294;2023-05-20T00:22:30;9.30;99.90
18577;DHT22;9418;52.694;13.294;2023-05-20T00:24:57;9.30;99.90
18577;DHT22;9418;52.694;13.294;2023-05-20T00:27:24;9.30;99.90
18577;DHT22;9418;52.694;13.294;2023-05-20T00:29:52;9.40;99.90
18577;DHT22;9418;52.694;13.294;2023-05-20T00:32:18;9.30;99.90
18577;DHT22;9418;52.694;13.294;2023-05-20T00:34:54;9.30;99.90
18577;DHT22;9418;52.694;13.294;2023-05-20T00:37:21;9.30;99.90
18577;DHT22;9418;52.694;13.294;2023-05-20T00:39:47;9.30;99.90
18577;DHT22;9418;52.694;13.294;2023-05-20T00:42:19;9.30;99.90
18577;DHT22;9418;52.694;13.294;2023-05-20T00:44:45;9.30;99.90
18577;DHT22;9418;52.694;13.294;2023-05-20T00:47:13;9.30;99.90
18577;DHT22;9418;52.694;13.294;2023-05-20T00:49:40;9.30;99.90
18577;DHT22;9418;52.694;13.294;2023-05-20T00:52:07;9.20;99.90
18577;DHT22;9418;52.694;13.294;2023-05-20T00:54:34;9.20;99.90
18577;DHT22;9418;52.694;13.294;2023-05-20T00:57:01;9.30;99.90
18577;DHT22;9418;52.694;13.294;2023-05-20T00:59:28;9.20;99.90
18577;DHT22;9418;52.694;13.294;2023-05-20T01:01:55;9.10;99.90
18577;DHT22;9418;52.694;13.294;2023-05-20T01:04:24;9.10;99.90
18577;DHT22;9418;52.694;13.294;2023-05-20T01:06:50;9.00;99.90
18577;DHT22;9418;52.694;13.294;2023-05-20T01:09:17;8.90;99.90
18577;DHT22;9418;52.694;13.294;2023-05-20T01:11:49;9.00;99.90
18577;DHT22;9418;52.694;13.294;2023-05-20T01:14:18;8.90;99.90
18577;DHT22;9418;52.694;13.294;2023-05-20T01:16:47;8.90;99.90
18577;DHT22;9418;52.694;13.294;2023-05-20T01:19:26;8.90;99.90
18577;DHT22;9418;52.694;13.294;2023-05-20T01:21:53;8.80;99.90
18577;DHT22;9418;52.694;13.294;2023-05-20T01:24:22;8.80;99.90
18577;DHT22;9418;52.694;13.294;2023-05-20T01:26:48;8.90;99.90
18577;DHT22;9418;52.694;13.294;2023-05-20T01:29:15;8.80;99.90
18577;DHT22;9418;52.694;13.294;2023-05-20T01:31:43;8.80;99.90
18577;DHT22;9418;52.694;13.294;2023-05-20T01:34:12;8.80;99.90
18577;DHT22;9418;52.694;13.294;2023-05-20T01:36:39;8.80;99.90
18577;DHT22;9418;52.694;13.294;2023-05-20T01:39:05;8.80;99.90
18577;DHT22;9418;52.694;13.294;2023-05-20T01:41:34;8.80;99.90
18577;DHT22;9418;52.694;13.294;2023-05-20T01:44:01;8.80;99.90
18577;DHT22;9418;52.694;13.294;2023-05-20T01:46:31;8.80;99.90
18577;DHT22;9418;52.694;13.294;2023-05-20T01:48:58;8.80;99.90
18577;DHT22;9418;52.694;13.294;2023-05-20T01:51:25;8.70;99.90
18577;DHT22;9418;52.694;13.294;2023-05-20T01:53:52;8.70;99.90
18577;DHT22;9418;52.694;13.294;2023-05-20T01:56:18;8.70;99.90
18577;DHT22;9418;52.694;13.294;2023-05-20T01:58:47;8.80;99.90
18577;DHT22;9418;52.694;13.294;2023-05-20T02:01:14;8.70;99.90
18577;DHT22;9418;52.694;13.294;2023-05-20T02:03:40;8.80;99.90
18577;DHT22;9418;52.694;13.294;2023-05-20T02:06:07;8.80;99.90
18577;DHT22;9418;52.694;13.294;2023-05-20T02:08:33;8.80;99.90
18577;DHT22;9418;52.694;13.294;2023-05-20T02:11:00;8.80;99.90
18577;DHT22;9418;52.694;13.294;2023-05-20T02:13:26;8.70;99.90
18577;DHT22;9418;52.694;13.294;2023-05-20T02:15:54;8.70;99.90
18577;DHT22;9418;52.694;13.294;2023-05-20T02:18:21;8.70;99.90
18577;DHT22;9418;52.694;13.294;2023-05-20T02:20:47;8.70;99.90
18577;DHT22;9418;52.694;13.294;2023-05-20T02:23:14;8.70;99.90
18577;DHT22;9418;52.694;13.294;2023-05-20T02:25:40;8.70;99.90
18577;DHT22;9418;52.694;13.294;2023-05-20T02:28:07;8.70;99.90
18577;DHT22;9418;52.694;13.294;2023-05-20T02:30:35;8.70;99.90
18577;DHT22;9418;52.694;13.294;2023-05-20T02:33:03;8.70;99.90
18577;DHT22;9418;52.694;13.294;2023-05-20T02:35:29;8.60;99.90
18577;DHT22;9418;52.694;13.294;2023-05-20T02:37:56;8.60;99.90
18577;DHT22;9418;52.694;13.294;2023-05-20T02:40:22;8.60;99.90
18577;DHT22;9418;52.694;13.294;2023-05-20T02:42:49;8.60;99.90
18577;DHT22;9418;52.694;13.294;2023-05-20T02:45:15;8.60;99.90
18577;DHT22;9418;52.694;13.294;2023-05-20T02:47:42;8.60;99.90
18577;DHT22;9418;52.694;13.294;2023-05-20T02:50:10;8.50;99.90
18577;DHT22;9418;52.694;13.294;2023-05-20T02:52:37;8.50;99.90
18577;DHT22;9418;52.694;13.294;2023-05-20T02:55:05;8.50;99.90
18577;DHT22;9418;52.694;13.294;2023-05-20T02:57:31;8.50;99.90
18577;DHT22;9418;52.694;13.294;2023-05-20T03:00:01;8.50;99.90
18577;DHT22;9418;52.694;13.294;2023-05-20T03:02:29;8.50;99.90
18577;DHT22;9418;52.694;13.294;2023-05-20T03:04:55;8.40;99.90
18577;DHT22;9418;52.694;13.294;2023-05-20T03:07:23;8.40;99.90
18577;DHT22;9418;52.694;13.294;2023-05-20T03:09:50;8.40;99.90
18577;DHT22;9418;52.694;13.294;2023-05-20T03:12:17;8.40;99.90
18577;DHT22;9418;52.694;13.294;2023-05-20T03:14:44;8.40;99.90
18577;DHT22;9418;52.694;13.294;2023-05-20T03:17:10;8.40;99.90
18577;DHT22;9418;52.694;13.294;2023-05-20T03:19:37;8.40;99.90
18577;DHT22;9418;52.694;13.294;2023-05-20T03:22:03;8.40;99.90
18577;DHT22;9418;52.694;13.294;2023-05-20T03:24:32;8.40;99.90
18577;DHT22;9418;52.694;13.294;2023-05-20T03:26:59;8.40;99.90
18577;DHT22;9418;52.694;13.294;2023-05-20T03:29:25;8.40;99.90
18577;DHT22;9418;52.694;13.294;2023-05-20T03:31:52;8.40;99.90
18577;DHT22;9418;52.694;13.294;2023-05-20T03:34:18;8.40;99.90
18577;DHT22;9418;52.694;13.294;2023-05-20T03:36:45;8.40;99.90
18577;DHT22;9418;52.694;13.294;2023-05-20T03:39:12;8.50;99.90
18577;DHT22;9418;52.694;13.294;2023-05-20T03:41:39;8.50;99.90
18577;DHT22;9418;52.694;13.294;2023-05-20T03:44:06;8.60;99.90
18577;DHT22;9418;52.694;13.294;2023-05-20T03:46:33;8.60;99.90
18577;DHT22;9418;52.694;13.294;2023-05-20T03:48:59;8.60;99.90
18577;DHT22;9418;52.694;13.294;2023-05-20T03:51:27;8.70;99.90
18577;DHT22;9418;52.694;13.294;2023-05-20T03:53:53;8.70;99.90
18577;DHT22;9418;52.694;13.294;2023-05-20T03:56:20;8.80;99.90
18577;DHT22;9418;52.694;13.294;2023-05-20T03:58:48;8.80;99.90
18577;DHT22;9418;52.694;13.294;2023-05-20T04:01:14;8.90;99.90
18577;DHT22;9418;52.694;13.294;2023-05-20T04:03:41;9.00;99.90
18577;DHT22;9418;52.694;13.294;2023-05-20T04:06:08;9.00;99.90
18577;DHT22;9418;52.694;13.294;2023-05-20T04:08:34;9.10;99.90
18577;DHT22;9418;52.694;13.294;2023-05-20T04:11:01;9.20;99.90
18577;DHT22;9418;52.694;13.294;2023-05-20T04:13:28;9.20;99.90
18577;DHT22;9418;52.694;13.294;2023-05-20T04:15:56;9.30;99.90
18577;DHT22;9418;52.694;13.294;2023-05-20T04:18:22;9.30;99.90
18577;DHT22;9418;52.694;13.294;2023-05-20T04:20:53;9.30;99.90
18577;DHT22;9418;52.694;13.294;2023-05-20T04:23:19;9.40;99.90
18577;DHT22;9418;52.694;13.294;2023-05-20T04:25:46;9.40;99.90
18577;DHT22;9418;52.694;13.294;2023-05-20T04:28:13;9.50;99.90
18577;DHT22;9418;52.694;13.294;2023-05-20T04:30:40;9.50;99.90
18577;DHT22;9418;52.694;13.294;2023-05-20T04:33:10;9.60;99.90
18577;DHT22;9418;52.694;13.294;2023-05-20T04:35:37;9.60;99.90
18577;DHT22;9418;52.694;13.294;2023-05-20T04:38:05;9.70;99.90
18577;DHT22;9418;52.694;13.294;2023-05-20T04:40:32;9.70;99.90
18577;DHT22;9418;52.694;13.294;2023-05-20T04:42:59;9.90;99.90
18577;DHT22;9418;52.694;13.294;2023-05-20T04:45:26;9.90;99.90
18577;DHT22;9418;52.694;13.294;2023-05-20T04:47:52;9.90;99.90
18577;DHT22;9418;52.694;13.294;2023-05-20T04:50:20;9.90;99.90
18577;DHT22;9418;52.694;13.294;2023-05-20T04:52:47;10.00;99.90
18577;DHT22;9418;52.694;13.294;2023-05-20T04:55:14;10.00;99.90
18577;DHT22;9418;52.694;13.294;2023-05-20T04:57:40;10.00;99.90
18577;DHT22;9418;52.694;13.294;2023-05-20T05:00:08;10.00;99.90
18577;DHT22;9418;52.694;13.294;2023-05-20T05:02:35;10.00;99.90
18577;DHT22;9418;52.694;13.294;2023-05-20T05:05:02;10.00;99.90
18577;DHT22;9418;52.694;13.294;2023-05-20T05:07:30;10.00;99.90
18577;DHT22;9418;52.694;13.294;2023-05-20T05:09:56;10.00;99.90
18577;DHT22;9418;52.694;13.294;2023-05-20T05:12:23;10.10;99.90
18577;DHT22;9418;52.694;13.294;2023-05-20T05:14:49;10.10;99.90
18577;DHT22;9418;52.694;13.294;2023-05-20T05:17:16;10.20;99.90
18577;DHT22;9418;52.694;13.294;2023-05-20T05:19:43;10.20;99.90
18577;DHT22;9418;52.694;13.294;2023-05-20T05:22:09;10.20;99.90
18577;DHT22;9418;52.694;13.294;2023-05-20T05:24:37;10.20;99.90
18577;DHT22;9418;52.694;13.294;2023-05-20T05:27:04;10.20;99.90
18577;DHT22;9418;52.694;13.294;2023-05-20T05:29:31;10.30;99.90
18577;DHT22;9418;52.694;13.294;2023-05-20T05:31:57;10.20;99.90
18577;DHT22;9418;52.694;13.294;2023-05-20T05:34:24;10.30;99.90
18577;DHT22;9418;52.694;13.294;2023-05-20T05:36:50;10.30;99.90
18577;DHT22;9418;52.694;13.294;2023-05-20T05:39:17;10.40;99.90
18577;DHT22;9418;52.694;13.294;2023-05-20T05:41:45;10.40;99.90
18577;DHT22;9418;52.694;13.294;2023-05-20T05:44:11;10.40;99.90
18577;DHT22;9418;52.694;13.294;2023-05-20T05:46:39;10.50;99.90
18577;DHT22;9418;52.694;13.294;2023-05-20T05:49:05;10.50;99.90
18577;DHT22;9418;52.694;13.294;2023-05-20T05:51:32;10.50;99.90
18577;DHT22;9418;52.694;13.294;2023-05-20T05:53:58;10.60;99.90
18577;DHT22;9418;52.694;13.294;2023-05-20T05:56:25;10.60;99.90
18577;DHT22;9418;52.694;13.294;2023-05-20T05:58:53;10.70;99.90
18577;DHT22;9418;52.694;13.294;2023-05-20T06:01:19;10.70;99.90
18577;DHT22;9418;52.694;13.294;2023-05-20T06:03:46;10.70;99.90
18577;DHT22;9418;52.694;13.294;2023-05-20T06:06:12;10.70;99.90
18577;DHT22;9418;52.694;13.294;2023-05-20T06:08:39;10.80;99.90
18577;DHT22;9418;52.694;13.294;2023-05-20T06:11:06;10.80;99.90
18577;DHT22;9418;52.694;13.294;2023-05-20T06:13:32;10.80;99.90
18577;DHT22;9418;52.694;13.294;2023-05-20T06:16:00;10.90;99.90
18577;DHT22;9418;52.694;13.294;2023-05-20T06:18:27;11.00;99.90
18577;DHT22;9418;52.694;13.294;2023-05-20T06:20:55;11.00;99.90
18577;DHT22;9418;52.694;13.294;2023-05-20T06:23:21;11.10;99.90
18577;DHT22;9418;52.694;13.294;2023-05-20T06:25:48;11.10;99.90
18577;DHT22;9418;52.694;13.294;2023-05-20T06:28:15;11.20;99.90
18577;DHT22;9418;52.694;13.294;2023-05-20T06:30:42;11.30;99.90
18577;DHT22;9418;52.694;13.294;2023-05-20T06:33:09;11.40;99.90
18577;DHT22;9418;52.694;13.294;2023-05-20T06:35:36;11.40;99.90
18577;DHT22;9418;52.694;13.294;2023-05-20T06:38:03;11.50;99.90
18577;DHT22;9418;52.694;13.294;2023-05-20T06:40:30;11.50;99.90
18577;DHT22;9418;52.694;13.294;2023-05-20T06:42:56;11.50;99.90
18577;DHT22;9418;52.694;13.294;2023-05-20T06:45:23;11.60;99.90
18577;DHT22;9418;52.694;13.294;2023-05-20T06:47:49;11.60;99.90
18577;DHT22;9418;52.694;13.294;2023-05-20T06:50:19;11.70;99.90
18577;DHT22;9418;52.694;13.294;2023-05-20T06:52:46;11.80;99.90
18577;DHT22;9418;52.694;13.294;2023-05-20T06:55:12;11.80;99.90
18577;DHT22;9418;52.694;13.294;2023-05-20T06:57:39;11.70;99.90
18577;DHT22;9418;52.694;13.294;2023-05-20T07:00:07;11.60;99.90
18577;DHT22;9418;52.694;13.294;2023-05-20T07:02:33;11.60;99.90
18577;DHT22;9418;52.694;13.294;2023-05-20T07:05:00;11.60;99.90
18577;DHT22;9418;52.694;13.294;2023-05-20T07:07:28;11.60;99.90
18577;DHT22;9418;52.694;13.294;2023-05-20T07:09:54;11.60;99.90
18577;DHT22;9418;52.694;13.294;2023-05-20T07:12:21;11.60;99.90
18577;DHT22;9418;52.694;13.294;2023-05-20T07:14:47;11.60;99.90
18577;DHT22;9418;52.694;13.294;2023-05-20T07:17:14;11.60;99.90
18577;DHT22;9418;52.694;13.294;2023-05-20T07:19:40;11.70;99.90
18577;DHT22;9418;52.694;13.294;2023-05-20T07:22:07;11.70;99.90
18577;DHT22;9418;52.694;13.294;2023-05-20T07:24:35;11.70;99.90
18577;DHT22;9418;52.694;13.294;2023-05-20T07:27:02;11.70;99.90
18577;DHT22;9418;52.694;13.294;2023-05-20T07:29:28;11.80;99.90
18577;DHT22;9418;52.694;13.294;2023-05-20T07:31:55;11.80;99.90
18577;DHT22;9418;52.694;13.294;2023-05-20T07:34:22;11.90;99.90
18577;DHT22;9418;52.694;13.294;2023-05-20T07:36:48;12.00;99.90
18577;DHT22;9418;52.694;13.294;2023-05-20T07:39:15;12.10;99.90
18577;DHT22;9418;52.694;13.294;2023-05-20T07:41:43;12.10;99.90
18577;DHT22;9418;52.694;13.294;2023-05-20T07:44:10;12.20;99.90
18577;DHT22;9418;52.694;13.294;2023-05-20T07:46:37;12.30;99.90
18577;DHT22;9418;52.694;13.294;2023-05-20T07:49:06;12.30;99.90
18577;DHT22;9418;52.694;13.294;2023-05-20T07:51:32;12.30;99.90
18577;DHT22;9418;52.694;13.294;2023-05-20T07:53:59;12.30;99.90
18577;DHT22;9418;52.694;13.294;2023-05-20T07:56:26;12.50;99.90
18577;DHT22;9418;52.694;13.294;2023-05-20T07:58:55;12.50;99.90
18577;DHT22;9418;52.694;13.294;2023-05-20T08:01:23;12.60;99.90
18577;DHT22;9418;52.694;13.294;2023-05-20T08:03:50;12.70;99.90
18577;DHT22;9418;52.694;13.294;2023-05-20T08:06:17;12.80;99.90
18577;DHT22;9418;52.694;13.294;2023-05-20T08:08:45;12.90;99.90
18577;DHT22;9418;52.694;13.294;2023-05-20T08:11:11;13.00;99.90
18577;DHT22;9418;52.694;13.294;2023-05-20T08:13:38;13.00;99.90
18577;DHT22;9418;52.694;13.294;2023-05-20T08:16:06;13.10;99.90
18577;DHT22;9418;52.694;13.294;2023-05-20T08:18:34;13.20;99.90
18577;DHT22;9418;52.694;13.294;2023-05-20T08:21:00;13.20;99.90
18577;DHT22;9418;52.694;13.294;2023-05-20T08:23:27;13.30;99.90
18577;DHT22;9418;52.694;13.294;2023-05-20T08:25:54;13.40;99.90
18577;DHT22;9418;52.694;13.294;2023-05-20T08:28:21;13.40;99.90
18577;DHT22;9418;52.694;13.294;2023-05-20T08:30:48;13.50;99.90
18577;DHT22;9418;52.694;13.294;2023-05-20T08:33:17;13.60;99.90
18577;DHT22;9418;52.694;13.294;2023-05-20T08:35:46;13.80;99.90
18577;DHT22;9418;52.694;13.294;2023-05-20T08:38:12;14.00;99.90
18577;DHT22;9418;52.694;13.294;2023-05-20T08:40:39;14.10;99.90
18577;DHT22;9418;52.694;13.294;2023-05-20T08:43:07;14.10;99.90
18577;DHT22;9418;52.694;13.294;2023-05-20T08:45:36;14.10;99.90
18577;DHT22;9418;52.694;13.294;2023-05-20T08:48:03;14.20;99.90
18577;DHT22;9418;52.694;13.294;2023-05-20T08:50:32;14.20;99.90
18577;DHT22;9418;52.694;13.294;2023-05-20T08:52:59;14.20;99.90
18577;DHT22;9418;52.694;13.294;2023-05-20T08:55:29;14.10;99.90
18577;DHT22;9418;52.694;13.294;2023-05-20T08:57:58;14.10;99.90
18577;DHT22;9418;52.694;13.294;2023-05-20T09:00:25;14.20;99.90
18577;DHT22;9418;52.694;13.294;2023-05-20T09:02:53;14.30;99.90
18577;DHT22;9418;52.694;13.294;2023-05-20T09:05:20;14.40;99.90
18577;DHT22;9418;52.694;13.294;2023-05-20T09:07:48;14.50;99.90
18577;DHT22;9418;52.694;13.294;2023-05-20T09:10:15;14.60;99.90
18577;DHT22;9418;52.694;13.294;2023-05-20T09:12:41;14.40;85.50
18577;DHT22;9418;52.694;13.294;2023-05-20T09:15:08;14.50;99.90
18577;DHT22;9418;52.694;13.294;2023-05-20T09:17:35;14.60;99.90
18577;DHT22;9418;52.694;13.294;2023-05-20T09:20:05;15.00;99.90
18577;DHT22;9418;52.694;13.294;2023-05-20T09:22:34;15.20;34.50
18577;DHT22;9418;52.694;13.294;2023-05-20T09:25:02;15.20;48.30
18577;DHT22;9418;52.694;13.294;2023-05-20T09:27:28;15.30;37.50
18577;DHT22;9418;52.694;13.294;2023-05-20T09:29:55;15.30;45.90
18577;DHT22;9418;52.694;13.294;2023-05-20T09:32:21;15.40;47.30
18577;DHT22;9418;52.694;13.294;2023-05-20T09:34:51;15.40;52.30
18577;DHT22;9418;52.694;13.294;2023-05-20T09:37:18;15.40;48.40
18577;DHT22;9418;52.694;13.294;2023-05-20T09:39:53;15.40;67.40
18577;DHT22;9418;52.694;13.294;2023-05-20T09:42:25;15.30;64.80
18577;DHT22;9418;52.694;13.294;2023-05-20T09:44:53;15.30;50.20
18577;DHT22;9418;52.694;13.294;2023-05-20T09:47:21;15.30;65.70
18577;DHT22;9418;52.694;13.294;2023-05-20T09:49:49;15.20;52.80
18577;DHT22;9418;52.694;13.294;2023-05-20T09:52:17;14.80;56.50
18577;DHT22;9418;52.694;13.294;2023-05-20T09:54:44;14.80;28.30
18577;DHT22;9418;52.694;13.294;2023-05-20T09:57:12;14.80;33.10
18577;DHT22;9418;52.694;13.294;2023-05-20T09:59:40;14.80;39.60
18577;DHT22;9418;52.694;13.294;2023-05-20T10:02:07;15.10;33.10
18577;DHT22;9418;52.694;13.294;2023-05-20T10:04:37;15.20;43.50
18577;DHT22;9418;52.694;13.294;2023-05-20T10:07:19;15.10;54.00
18577;DHT22;9418;52.694;13.294;2023-05-20T10:09:58;15.10;47.90
18577;DHT22;9418;52.694;13.294;2023-05-20T10:12:32;15.20;45.30
18577;DHT22;9418;52.694;13.294;2023-05-20T10:15:09;15.00;39.20
18577;DHT22;9418;52.694;13.294;2023-05-20T10:17:47;15.10;37.90
18577;DHT22;9418;52.694;13.294;2023-05-20T10:20:16;15.20;34.00
18577;DHT22;9418;52.694;13.294;2023-05-20T10:22:54;15.20;40.30
18577;DHT22;9418;52.694;13.294;2023-05-20T10:25:23;15.30;31.70
18577;DHT22;9418;52.694;13.294;2023-05-20T10:27:51;15.20;41.40
18577;DHT22;9418;52.694;13.294;2023-05-20T10:30:20;15.00;48.00
18577;DHT22;9418;52.694;13.294;2023-05-20T10:32:52;15.10;35.50
18577;DHT22;9418;52.694;13.294;2023-05-20T10:35:21;15.20;27.80
18577;DHT22;9418;52.694;13.294;2023-05-20T10:37:50;15.30;27.50
18577;DHT22;9418;52.694;13.294;2023-05-20T10:40:18;15.40;41.80
18577;DHT22;9418;52.694;13.294;2023-05-20T10:42:45;15.40;33.60
18577;DHT22;9418;52.694;13.294;2023-05-20T10:45:25;15.50;39.80
18577;DHT22;9418;52.694;13.294;2023-05-20T10:47:56;15.30;43.00
18577;DHT22;9418;52.694;13.294;2023-05-20T10:50:26;15.20;34.80
18577;DHT22;9418;52.694;13.294;2023-05-20T10:52:54;15.30;36.80
18577;DHT22;9418;52.694;13.294;2023-05-20T10:55:21;15.20;27.40
18577;DHT22;9418;52.694;13.294;2023-05-20T10:57:48;15.30;30.90
18577;DHT22;9418;52.694;13.294;2023-05-20T11:00:17;15.40;34.20
18577;DHT22;9418;52.694;13.294;2023-05-20T11:02:46;15.50;40.60
18577;DHT22;9418;52.694;13.294;2023-05-20T11:05:15;15.60;46.90
18577;DHT22;9418;52.694;13.294;2023-05-20T11:07:42;15.70;43.90
18577;DHT22;9418;52.694;13.294;2023-05-20T11:10:09;15.70;48.10
18577;DHT22;9418;52.694;13.294;2023-05-20T11:12:38;15.70;49.00
18577;DHT22;9418;52.694;13.294;2023-05-20T11:15:05;15.80;44.70
18577;DHT22;9418;52.694;13.294;2023-05-20T11:17:32;15.70;55.10
18577;DHT22;9418;52.694;13.294;2023-05-20T11:20:00;15.90;44.50
18577;DHT22;9418;52.694;13.294;2023-05-20T11:22:26;16.30;49.10
18577;DHT22;9418;52.694;13.294;2023-05-20T11:24:53;16.20;87.70
18577;DHT22;9418;52.694;13.294;2023-05-20T11:27:20;16.50;80.30
18577;DHT22;9418;52.694;13.294;2023-05-20T11:29:49;16.40;71.90
18577;DHT22;9418;52.694;13.294;2023-05-20T11:32:18;16.60;82.40
18577;DHT22;9418;52.694;13.294;2023-05-20T11:34:45;16.60;96.20
18577;DHT22;9418;52.694;13.294;2023-05-20T11:37:13;17.00;99.90
18577;DHT22;9418;52.694;13.294;2023-05-20T11:39:40;17.40;99.90
18577;DHT22;9418;52.694;13.294;2023-05-20T11:42:06;17.40;99.90
18577;DHT22;9418;52.694;13.294;2023-05-20T11:44:33;16.70;99.90
18577;DHT22;9418;52.694;13.294;2023-05-20T11:47:00;16.80;99.90
18577;DHT22;9418;52.694;13.294;2023-05-20T11:49:27;16.70;99.90
18577;DHT22;9418;52.694;13.294;2023-05-20T11:51:55;16.60;99.90
18577;DHT22;9418;52.694;13.294;2023-05-20T11:54:24;16.80;99.90
18577;DHT22;9418;52.694;13.294;2023-05-20T11:56:50;16.90;99.90
18577;DHT22;9418;52.694;13.294;2023-05-20T11:59:19;17.10;99.90
18577;DHT22;9418;52.694;13.294;2023-05-20T12:01:46;17.20;99.90
18577;DHT22;9418;52.694;13.294;2023-05-20T12:04:12;17.70;99.90
18577;DHT22;9418;52.694;13.294;2023-05-20T12:06:40;18.10;24.70
18577;DHT22;9418;52.694;13.294;2023-05-20T12:09:08;18.30;49.20
18577;DHT22;9418;52.694;13.294;2023-05-20T12:11:37;18.80;79.30
18577;DHT22;9418;52.694;13.294;2023-05-20T12:14:05;18.50;99.90
18577;DHT22;9418;52.694;13.294;2023-05-20T12:16:33;18.20;90.90
18577;DHT22;9418;52.694;13.294;2023-05-20T12:19:00;18.20;90.60
18577;DHT22;9418;52.694;13.294;2023-05-20T12:21:27;18.20;82.20
18577;DHT22;9418;52.694;13.294;2023-05-20T12:23:54;17.50;73.90
18577;DHT22;9418;52.694;13.294;2023-05-20T12:26:22;17.70;61.10
18577;DHT22;9418;52.694;13.294;2023-05-20T12:28:50;18.20;41.40
18577;DHT22;9418;52.694;13.294;2023-05-20T12:31:16;18.40;54.10
18577;DHT22;9418;52.694;13.294;2023-05-20T12:33:43;18.80;84.40
18577;DHT22;9418;52.694;13.294;2023-05-20T12:36:10;18.70;90.10
18577;DHT22;9418;52.694;13.294;2023-05-20T12:38:36;18.70;86.00
18577;DHT22;9418;52.694;13.294;2023-05-20T12:41:03;18.50;89.60
18577;DHT22;9418;52.694;13.294;2023-05-20T12:43:29;18.40;83.10
18577;DHT22;9418;52.694;13.294;2023-05-20T12:45:57;18.40;94.60
18577;DHT22;9418;52.694;13.294;2023-05-20T12:48:24;18.90;95.90
18577;DHT22;9418;52.694;13.294;2023-05-20T12:50:50;18.90;99.90
18577;DHT22;9418;52.694;13.294;2023-05-20T12:53:17;19.00;99.90
18577;DHT22;9418;52.694;13.294;2023-05-20T12:55:43;18.40;99.90
18577;DHT22;9418;52.694;13.294;2023-05-20T12:58:10;19.60;99.90
18577;DHT22;9418;52.694;13.294;2023-05-20T13:00:37;19.30;99.90
18577;DHT22;9418;52.694;13.294;2023-05-20T13:03:04;19.50;99.90
18577;DHT22;9418;52.694;13.294;2023-05-20T13:05:31;19.40;99.90
18577;DHT22;9418;52.694;13.294;2023-05-20T13:07:58;18.60;99.90
18577;DHT22;9418;52.694;13.294;2023-05-20T13:10:24;18.70;99.90
18577;DHT22;9418;52.694;13.294;2023-05-20T13:12:52;19.20;99.90
18577;DHT22;9418;52.694;13.294;2023-05-20T13:15:18;19.50;99.90
18577;DHT22;9418;52.694;13.294;2023-05-20T13:17:45;19.80;99.90
18577;DHT22;9418;52.694;13.294;2023-05-20T13:20:13;19.80;99.90
18577;DHT22;9418;52.694;13.294;2023-05-20T13:22:41;19.80;99.90
18577;DHT22;9418;52.694;13.294;2023-05-20T13:25:08;19.60;99.90
18577;DHT22;9418;52.694;13.294;2023-05-20T13:27:34;19.50;99.90
18577;DHT22;9418;52.694;13.294;2023-05-20T13:30:01;19.60;99.90
18577;DHT22;9418;52.694;13.294;2023-05-20T13:32:28;18.90;99.90
18577;DHT22;9418;52.694;13.294;2023-05-20T13:34:55;18.60;99.90
18577;DHT22;9418;52.694;13.294;2023-05-20T13:37:25;19.00;99.90
18577;DHT22;9418;52.694;13.294;2023-05-20T13:39:51;18.90;99.90
18577;DHT22;9418;52.694;13.294;2023-05-20T13:42:18;20.00;99.90
18577;DHT22;9418;52.694;13.294;2023-05-20T13:44:44;20.90;99.90
18577;DHT22;9418;52.694;13.294;2023-05-20T13:47:11;21.30;99.90
18577;DHT22;9418;52.694;13.294;2023-05-20T13:49:38;21.30;99.90
18577;DHT22;9418;52.694;13.294;2023-05-20T13:52:05;21.10;99.90
18577;DHT22;9418;52.694;13.294;2023-05-20T13:54:33;20.30;99.90
18577;DHT22;9418;52.694;13.294;2023-05-20T13:56:59;20.50;99.90
18577;DHT22;9418;52.694;13.294;2023-05-20T13:59:27;20.00;99.90
18577;DHT22;9418;52.694;13.294;2023-05-20T14:01:53;20.30;99.90
18577;DHT22;9418;52.694;13.294;2023-05-20T14:04:20;20.10;99.90
18577;DHT22;9418;52.694;13.294;2023-05-20T14:06:48;19.60;99.90
18577;DHT22;9418;52.694;13.294;2023-05-20T14:09:15;19.40;99.90
18577;DHT22;9418;52.694;13.294;2023-05-20T14:11:43;19.40;99.90
18577;DHT22;9418;52.694;13.294;2023-05-20T14:14:09;19.30;99.90
18577;DHT22;9418;52.694;13.294;2023-05-20T14:16:36;19.90;99.90
18577;DHT22;9418;52.694;13.294;2023-05-20T14:19:03;20.30;99.90
18577;DHT22;9418;52.694;13.294;2023-05-20T14:21:30;20.00;99.90
18577;DHT22;9418;52.694;13.294;2023-05-20T14:23:57;20.10;99.90
18577;DHT22;9418;52.694;13.294;2023-05-20T14:26:24;19.90;99.90
18577;DHT22;9418;52.694;13.294;2023-05-20T14:28:52;20.10;99.90
18577;DHT22;9418;52.694;13.294;2023-05-20T14:31:18;20.20;99.90
18577;DHT22;9418;52.694;13.294;2023-05-20T14:33:45;20.40;99.90
18577;DHT22;9418;52.694;13.294;2023-05-20T14:36:11;20.50;99.90
18577;DHT22;9418;52.694;13.294;2023-05-20T14:38:38;20.80;99.90
18577;DHT22;9418;52.694;13.294;2023-05-20T14:41:04;21.30;99.90
18577;DHT22;9418;52.694;13.294;2023-05-20T14:43:31;21.00;99.90
18577;DHT22;9418;52.694;13.294;2023-05-20T14:45:59;20.70;99.90
18577;DHT22;9418;52.694;13.294;2023-05-20T14:48:25;20.50;99.90
18577;DHT22;9418;52.694;13.294;2023-05-20T14:50:52;20.60;99.90
18577;DHT22;9418;52.694;13.294;2023-05-20T14:53:19;20.60;99.90
18577;DHT22;9418;52.694;13.294;2023-05-20T14:55:45;20.40;99.90
18577;DHT22;9418;52.694;13.294;2023-05-20T14:58:12;20.80;99.90
18577;DHT22;9418;52.694;13.294;2023-05-20T15:00:39;21.20;99.90
18577;DHT22;9418;52.694;13.294;2023-05-20T15:03:07;21.10;99.90
18577;DHT22;9418;52.694;13.294;2023-05-20T15:05:33;21.80;99.90
18577;DHT22;9418;52.694;13.294;2023-05-20T15:08:00;22.10;99.90
18577;DHT22;9418;52.694;13.294;2023-05-20T15:10:27;22.50;99.90
18577;DHT22;9418;52.694;13.294;2023-05-20T15:12:53;22.60;99.90
18577;DHT22;9418;52.694;13.294;2023-05-20T15:15:20;21.90;99.90
18577;DHT22;9418;52.694;13.294;2023-05-20T15:17:46;22.40;99.90
18577;DHT22;9418;52.694;13.294;2023-05-20T15:20:14;22.30;99.90
18577;DHT22;9418;52.694;13.294;2023-05-20T15:22:41;21.80;99.90
18577;DHT22;9418;52.694;13.294;2023-05-20T15:25:10;21.40;99.90
18577;DHT22;9418;52.694;13.294;2023-05-20T15:27:36;21.10;99.90
18577;DHT22;9418;52.694;13.294;2023-05-20T15:30:03;20.90;99.90
18577;DHT22;9418;52.694;13.294;2023-05-20T15:32:30;20.80;99.90
18577;DHT22;9418;52.694;13.294;2023-05-20T15:34:57;21.20;99.90